createdAt,value
2023-07-06T00:01:59.331Z,79.32
2023-07-06T00:04:26.116Z,79.63
2023-07-06T00:06:52.767Z,79.81
2023-07-06T00:09:20.071Z,79.85
2023-07-06T00:11:48.818Z,79.91
2023-07-06T00:14:16.293Z,79.79
2023-07-06T00:16:48.958Z,80.19
2023-07-06T00:19:20.421Z,80.16
2023-07-06T00:21:50.416Z,80.13
2023-07-06T00:24:19.575Z,80.20
2023-07-06T00:26:46.265Z,80.13
2023-07-06T00:29:12.987Z,80.31
2023-07-06T00:31:52.388Z,80.42
2023-07-06T00:34:22.479Z,80.46
2023-07-06T00:36:53.901Z,80.14
2023-07-06T00:39:20.740Z,80.44
2023-07-06T00:41:48.334Z,80.51
2023-07-06T00:44:53.761Z,80.34
2023-07-06T00:47:40.571Z,80.20
2023-07-06T00:50:12.351Z,80.37
2023-07-06T00:52:49.487Z,80.47
2023-07-06T00:55:20.199Z,80.31
2023-07-06T00:57:52.935Z,80.26
2023-07-06T01:00:22.332Z,80.32
2023-07-06T01:02:55.047Z,80.17
2023-07-06T01:05:26.661Z,80.18
2023-07-06T01:07:56.345Z,80.66
2023-07-06T01:10:23.359Z,80.44
2023-07-06T01:12:50.159Z,80.70
2023-07-06T01:15:19.674Z,80.82
2023-07-06T01:18:07.972Z,80.69
2023-07-06T01:20:47.069Z,80.92
2023-07-06T01:23:59.395Z,81.00
2023-07-06T01:26:32.251Z,80.87
2023-07-06T01:29:04.882Z,81.04
2023-07-06T01:31:37.483Z,81.23
2023-07-06T01:34:28.925Z,81.01
2023-07-06T01:37:17.613Z,81.24
2023-07-06T01:39:46.938Z,81.44
2023-07-06T01:42:15.844Z,81.45
2023-07-06T01:44:50.867Z,81.48
2023-07-06T01:47:19.920Z,81.50
2023-07-06T01:49:47.976Z,81.71
2023-07-06T01:52:25.438Z,81.57
2023-07-06T01:55:10.393Z,81.13
2023-07-06T01:58:19.145Z,81.11
2023-07-06T02:00:51.307Z,81.38
2023-07-06T02:03:18.917Z,81.10
2023-07-06T02:05:46.426Z,81.42
2023-07-06T02:08:13.494Z,81.16
2023-07-06T02:10:40.232Z,81.22
2023-07-06T02:13:06.929Z,81.28
2023-07-06T02:15:33.862Z,81.18
2023-07-06T02:18:03.593Z,81.24
2023-07-06T02:20:30.470Z,81.22
2023-07-06T02:22:57.147Z,81.28
2023-07-06T02:25:24.663Z,81.24
2023-07-06T02:27:51.441Z,81.05
2023-07-06T02:30:20.596Z,81.22
2023-07-06T02:32:47.494Z,81.21
2023-07-06T02:35:14.387Z,81.42
2023-07-06T02:37:41.045Z,81.31
2023-07-06T02:40:10.068Z,81.42
2023-07-06T02:42:36.756Z,81.45
2023-07-06T02:45:05.904Z,81.51
2023-07-06T02:47:32.729Z,81.34
2023-07-06T02:49:59.878Z,81.30
2023-07-06T02:52:26.647Z,81.36
2023-07-06T02:54:54.862Z,81.27
2023-07-06T02:57:22.328Z,81.04
2023-07-06T02:59:48.921Z,81.06
2023-07-06T03:02:16.987Z,80.85
2023-07-06T03:04:43.644Z,81.13
2023-07-06T03:07:12.774Z,80.95
2023-07-06T03:09:39.550Z,81.07
2023-07-06T03:12:06.991Z,81.17
2023-07-06T03:14:34.374Z,81.21
2023-07-06T03:17:03.338Z,81.01
2023-07-06T03:19:30.099Z,81.06
2023-07-06T03:22:00.323Z,81.09
2023-07-06T03:24:27.482Z,80.95
2023-07-06T03:26:54.251Z,80.84
2023-07-06T03:29:22.380Z,80.80
2023-07-06T03:31:49.139Z,81.00
2023-07-06T03:34:15.846Z,80.84
2023-07-06T03:36:42.744Z,80.86
2023-07-06T03:39:12.777Z,80.77
2023-07-06T03:41:40.595Z,80.84
2023-07-06T03:44:07.471Z,80.81
2023-07-06T03:46:35.916Z,81.04
2023-07-06T03:49:08.476Z,80.77
2023-07-06T03:51:35.272Z,80.76
2023-07-06T03:54:07.397Z,80.57
2023-07-06T03:56:38.768Z,80.77
2023-07-06T03:59:10.281Z,80.76
2023-07-06T04:01:38.390Z,80.91
2023-07-06T04:04:07.756Z,80.78
2023-07-06T04:06:41.592Z,80.96
2023-07-06T04:09:11.157Z,80.87
2023-07-06T04:11:52.366Z,80.79
2023-07-06T04:14:25.669Z,80.88
2023-07-06T04:16:58.369Z,80.81
2023-07-06T04:19:26.848Z,80.88
2023-07-06T04:24:47.127Z,80.86
2023-07-06T04:27:21.250Z,80.62
2023-07-06T04:29:57.909Z,80.63
2023-07-06T04:32:33.262Z,80.56
2023-07-06T04:35:05.080Z,80.55
2023-07-06T04:37:37.719Z,80.41
2023-07-06T04:40:15.002Z,80.11
2023-07-06T04:42:41.970Z,79.76
2023-07-06T04:45:18.425Z,79.35
2023-07-06T04:48:11.626Z,79.23
2023-07-06T04:50:38.951Z,78.81
2023-07-06T04:53:09.052Z,78.80
2023-07-06T04:55:38.368Z,78.94
2023-07-06T04:58:07.588Z,78.94
2023-07-06T05:00:38.661Z,77.59
2023-07-06T05:03:11.495Z,76.17
2023-07-06T05:05:41.675Z,71.47
2023-07-06T05:08:11.048Z,66.99
2023-07-06T05:10:38.111Z,62.41
2023-07-06T05:13:06.072Z,58.76
2023-07-06T05:15:34.906Z,55.41
2023-07-06T05:18:05.134Z,52.67
2023-07-06T05:20:32.753Z,51.34
2023-07-06T05:23:00.017Z,52.78
2023-07-06T05:25:27.791Z,56.34
2023-07-06T05:27:54.674Z,59.39
2023-07-06T05:30:23.742Z,61.29
2023-07-06T05:32:51.120Z,62.57
2023-07-06T05:35:18.917Z,63.20
2023-07-06T05:37:45.784Z,63.63
2023-07-06T05:40:13.034Z,63.75
2023-07-06T05:42:39.741Z,65.20
2023-07-06T05:45:11.204Z,64.86
2023-07-06T05:47:42.878Z,64.22
2023-07-06T05:50:09.948Z,65.03
2023-07-06T05:52:36.724Z,66.01
2023-07-06T05:55:05.591Z,66.65
2023-07-06T05:57:33.130Z,66.92
2023-07-06T06:00:06.660Z,66.41
2023-07-06T06:02:33.347Z,65.46
2023-07-06T06:05:00.186Z,63.52
2023-07-06T06:07:26.818Z,63.45
2023-07-06T06:09:53.584Z,63.94
2023-07-06T06:12:20.363Z,63.36
2023-07-06T06:14:51.885Z,64.77
2023-07-06T06:17:20.144Z,64.91
2023-07-06T06:19:49.889Z,65.40
2023-07-06T06:22:18.005Z,65.43
2023-07-06T06:24:50.868Z,65.26
2023-07-06T06:27:21.941Z,64.79
2023-07-06T06:29:48.698Z,63.04
2023-07-06T06:32:18.195Z,62.27
2023-07-06T06:34:48.045Z,62.96
2023-07-06T06:37:16.777Z,63.79
2023-07-06T06:39:44.074Z,61.04
2023-07-06T06:42:10.960Z,57.89
2023-07-06T06:44:37.903Z,56.87
2023-07-06T06:47:07.683Z,54.15
2023-07-06T06:49:34.574Z,51.25
2023-07-06T06:52:05.447Z,49.28
2023-07-06T06:54:35.593Z,50.93
2023-07-06T06:57:06.409Z,53.33
2023-07-06T06:59:35.970Z,53.38
2023-07-06T07:02:04.426Z,54.24
2023-07-06T07:04:34.604Z,53.95
2023-07-06T07:07:05.255Z,53.53
2023-07-06T07:09:32.519Z,53.27
2023-07-06T07:12:00.177Z,50.77
2023-07-06T07:14:27.595Z,49.49
2023-07-06T07:16:54.714Z,48.11
2023-07-06T07:19:22.785Z,48.14
2023-07-06T07:21:51.618Z,49.01
2023-07-06T07:24:18.323Z,50.58
2023-07-06T07:26:45.928Z,52.16
2023-07-06T07:29:15.161Z,53.45
2023-07-06T07:31:43.059Z,54.74
2023-07-06T07:34:19.151Z,53.16
2023-07-06T07:36:46.263Z,53.16
2023-07-06T07:39:18.848Z,52.87
2023-07-06T07:41:47.089Z,51.96
2023-07-06T07:44:13.898Z,48.97
2023-07-06T07:46:40.952Z,43.70
2023-07-06T07:49:08.330Z,40.71
2023-07-06T07:51:35.006Z,39.49
2023-07-06T07:54:04.172Z,40.99
2023-07-06T07:56:31.233Z,43.29
2023-07-06T07:58:57.857Z,40.46
2023-07-06T08:01:26.394Z,39.36
2023-07-06T08:03:58.438Z,41.09
2023-07-06T08:06:25.496Z,40.94
2023-07-06T08:08:53.094Z,39.77
2023-07-06T08:11:22.660Z,37.15
2023-07-06T08:13:58.011Z,35.95
2023-07-06T08:16:25.345Z,33.75
2023-07-06T08:19:11.698Z,33.50
2023-07-06T08:21:56.118Z,34.01
2023-07-06T08:24:30.646Z,35.06
2023-07-06T08:27:05.631Z,35.73
2023-07-06T08:29:33.028Z,34.84
2023-07-06T08:32:00.658Z,34.41
2023-07-06T08:34:30.044Z,36.19
2023-07-06T08:36:57.069Z,35.57
2023-07-06T08:39:23.760Z,34.29
2023-07-06T08:41:55.816Z,36.79
2023-07-06T08:44:25.196Z,38.00
2023-07-06T08:46:55.625Z,37.97
2023-07-06T08:49:36.821Z,41.85
2023-07-06T08:52:16.862Z,40.90
2023-07-06T08:54:48.513Z,37.02
2023-07-06T08:57:24.984Z,35.80
2023-07-06T08:59:53.185Z,35.23
2023-07-06T09:02:25.739Z,34.77
2023-07-06T09:04:58.214Z,34.63
2023-07-06T09:07:48.635Z,35.02
2023-07-06T09:10:28.182Z,35.76
2023-07-06T09:13:13.230Z,36.30
2023-07-06T09:15:39.969Z,37.17
2023-07-06T09:18:06.780Z,38.12
2023-07-06T09:20:36.533Z,39.81
2023-07-06T09:23:07.388Z,41.43
2023-07-06T09:25:41.463Z,43.06
2023-07-06T09:28:17.187Z,43.94
2023-07-06T09:30:44.910Z,41.76
2023-07-06T09:33:26.095Z,42.82
2023-07-06T09:35:56.179Z,44.03
2023-07-06T09:38:26.956Z,42.69
2023-07-06T09:40:54.554Z,42.37
2023-07-06T09:43:26.214Z,40.35
2023-07-06T09:45:57.472Z,39.97
2023-07-06T09:48:38.726Z,39.96
2023-07-06T09:51:25.445Z,41.04
2023-07-06T09:53:57.904Z,41.29
2023-07-06T09:56:24.742Z,41.77
2023-07-06T09:58:53.354Z,40.82
2023-07-06T10:01:44.922Z,40.42
2023-07-06T10:04:33.938Z,40.65
2023-07-06T10:07:15.680Z,41.48
2023-07-06T10:09:51.600Z,41.88
2023-07-06T10:12:35.074Z,42.35
2023-07-06T10:15:06.478Z,42.37
2023-07-06T10:17:38.613Z,42.47
2023-07-06T10:20:05.293Z,43.53
2023-07-06T10:23:27.550Z,44.29
2023-07-06T10:26:09.361Z,43.84
2023-07-06T10:28:40.088Z,43.98
2023-07-06T10:31:10.399Z,44.52
2023-07-06T10:33:56.270Z,44.37
2023-07-06T10:36:26.419Z,42.35
2023-07-06T10:38:56.802Z,42.11
2023-07-06T10:41:32.633Z,41.26
2023-07-06T10:44:20.820Z,40.83
2023-07-06T10:46:59.511Z,40.09
2023-07-06T10:49:26.916Z,40.72
2023-07-06T10:51:56.699Z,40.97
2023-07-06T10:54:31.656Z,41.67
2023-07-06T10:57:06.942Z,42.02
2023-07-06T10:59:40.358Z,42.64
2023-07-06T11:02:16.183Z,43.10
2023-07-06T11:05:12.298Z,43.69
2023-07-06T11:07:43.839Z,43.91
2023-07-06T11:10:15.994Z,44.30
2023-07-06T11:12:55.596Z,44.31
2023-07-06T11:15:54.862Z,43.48
2023-07-06T11:18:46.530Z,42.99
2023-07-06T11:21:45.977Z,41.47
2023-07-06T11:24:19.840Z,39.55
2023-07-06T11:26:56.116Z,39.65
2023-07-06T11:29:38.792Z,38.94
2023-07-06T11:32:13.162Z,39.85
2023-07-06T11:34:46.478Z,39.34
2023-07-06T11:40:24.485Z,39.84
2023-07-06T11:43:19.460Z,39.84
2023-07-06T11:46:27.840Z,40.70
2023-07-06T11:49:21.758Z,39.86
2023-07-06T11:51:50.584Z,39.05
2023-07-06T11:54:36.465Z,38.96
2023-07-06T11:57:25.540Z,38.32
2023-07-06T12:00:10.801Z,37.20
2023-07-06T12:02:37.709Z,36.94
2023-07-06T12:05:06.837Z,37.00
2023-07-06T12:07:36.432Z,36.81
2023-07-06T12:10:05.620Z,37.12
2023-07-06T12:12:34.272Z,35.75
2023-07-06T12:15:07.059Z,35.55
2023-07-06T12:17:34.127Z,35.79
2023-07-06T12:20:00.837Z,35.98
2023-07-06T12:22:29.567Z,34.73
2023-07-06T12:24:57.779Z,35.50
2023-07-06T12:27:38.308Z,35.16
2023-07-06T12:30:19.836Z,35.13
2023-07-06T12:32:53.266Z,35.21
2023-07-06T12:35:20.501Z,35.42
2023-07-06T12:37:48.233Z,35.38
2023-07-06T12:40:27.830Z,34.34
2023-07-06T12:42:56.039Z,34.65
2023-07-06T12:45:24.663Z,34.57
2023-07-06T12:48:22.161Z,34.69
2023-07-06T12:50:53.571Z,34.72
2023-07-06T12:53:35.156Z,34.93
2023-07-06T12:56:12.435Z,35.09
2023-07-06T12:58:48.804Z,34.88
2023-07-06T13:01:19.787Z,34.88
2023-07-06T13:03:59.305Z,34.96
2023-07-06T13:06:29.653Z,34.84
2023-07-06T13:09:02.718Z,35.23
2023-07-06T13:11:29.532Z,35.41
2023-07-06T13:14:06.163Z,35.32
2023-07-06T13:16:52.876Z,35.20
2023-07-06T13:19:19.775Z,34.23
2023-07-06T13:21:46.592Z,34.04
2023-07-06T13:24:15.832Z,34.23
2023-07-06T13:26:42.551Z,34.17
2023-07-06T13:29:12.897Z,34.77
2023-07-06T13:31:53.693Z,34.39
2023-07-06T13:34:24.316Z,34.75
2023-07-06T13:36:54.179Z,34.31
2023-07-06T13:39:20.972Z,34.19
2023-07-06T13:41:51.063Z,34.84
2023-07-06T13:44:17.826Z,34.59
2023-07-06T13:46:48.834Z,34.73
2023-07-06T13:49:16.101Z,34.77
2023-07-06T13:51:45.510Z,35.02
2023-07-06T13:54:13.808Z,34.57
2023-07-06T13:56:43.890Z,34.64
2023-07-06T13:59:15.977Z,35.03
2023-07-06T14:01:44.564Z,34.68
2023-07-06T14:04:11.453Z,35.05
2023-07-06T14:06:38.245Z,34.89
2023-07-06T14:09:04.842Z,35.57
2023-07-06T14:11:31.521Z,35.30
2023-07-06T14:13:58.190Z,34.99
2023-07-06T14:16:26.042Z,35.32
2023-07-06T14:18:54.721Z,35.60
2023-07-06T14:21:25.457Z,35.26
2023-07-06T14:23:53.243Z,35.76
2023-07-06T14:26:20.279Z,35.11
2023-07-06T14:28:52.787Z,35.51
2023-07-06T14:31:20.420Z,35.38
2023-07-06T14:33:47.987Z,35.25
2023-07-06T14:36:15.575Z,35.29
2023-07-06T14:38:42.451Z,34.92
2023-07-06T14:41:09.318Z,35.45
2023-07-06T14:43:38.166Z,35.73
2023-07-06T14:46:07.422Z,35.48
2023-07-06T14:48:34.339Z,36.08
2023-07-06T14:51:11.365Z,35.87
2023-07-06T14:53:40.318Z,35.73
2023-07-06T14:56:10.203Z,35.25
2023-07-06T14:58:36.875Z,35.51
2023-07-06T15:01:03.579Z,34.67
2023-07-06T15:03:30.221Z,34.79
2023-07-06T15:06:08.238Z,33.68
2023-07-06T15:08:34.914Z,33.88
2023-07-06T15:11:02.208Z,33.55
2023-07-06T15:13:29.269Z,33.85
2023-07-06T15:15:57.184Z,34.28
2023-07-06T15:18:23.988Z,33.49
2023-07-06T15:21:14.159Z,33.56
2023-07-06T15:23:44.393Z,33.40
2023-07-06T15:26:12.431Z,33.11
2023-07-06T15:28:41.493Z,33.09
2023-07-06T15:31:09.940Z,33.70
2023-07-06T15:33:39.969Z,34.05
2023-07-06T15:36:06.721Z,34.01
2023-07-06T15:38:33.413Z,34.47
2023-07-06T15:41:00.129Z,34.47
2023-07-06T15:43:26.750Z,34.35
2023-07-06T15:45:53.450Z,34.66
2023-07-06T15:48:22.279Z,35.46
2023-07-06T15:50:50.583Z,35.82
2023-07-06T15:53:23.200Z,35.83
2023-07-06T15:55:58.526Z,35.60
2023-07-06T15:58:27.410Z,35.09
2023-07-06T16:00:54.588Z,34.80
2023-07-06T16:03:22.281Z,35.16
2023-07-06T16:05:50.217Z,35.27
2023-07-06T16:08:22.257Z,35.31
2023-07-06T16:10:51.044Z,34.91
2023-07-06T16:13:18.476Z,34.74
2023-07-06T16:15:45.496Z,35.12
2023-07-06T16:18:14.791Z,34.74
2023-07-06T16:20:51.342Z,34.61
2023-07-06T16:23:18.100Z,34.34
2023-07-06T16:25:46.814Z,34.33
2023-07-06T16:28:13.461Z,34.56
2023-07-06T16:30:40.108Z,34.75
2023-07-06T16:33:06.897Z,34.89
2023-07-06T16:35:38.294Z,35.24
2023-07-06T16:38:07.678Z,35.27
2023-07-06T16:40:35.294Z,35.14
2023-07-06T16:43:04.318Z,34.53
2023-07-06T16:45:32.263Z,34.37
2023-07-06T16:47:58.986Z,34.11
2023-07-06T16:50:25.643Z,34.39
2023-07-06T16:52:56.243Z,35.06
2023-07-06T16:55:24.917Z,34.70
2023-07-06T16:57:53.110Z,35.29
2023-07-06T17:00:22.525Z,35.16
2023-07-06T17:02:52.880Z,35.18
2023-07-06T17:05:21.446Z,35.32
2023-07-06T17:07:51.909Z,35.72
2023-07-06T17:10:22.062Z,36.10
2023-07-06T17:12:48.744Z,36.16
2023-07-06T17:15:17.102Z,36.71
2023-07-06T17:17:45.399Z,36.66
2023-07-06T17:20:13.919Z,37.20
2023-07-06T17:22:42.540Z,37.08
2023-07-06T17:25:09.949Z,36.99
2023-07-06T17:27:39.398Z,37.00
2023-07-06T17:30:08.365Z,37.07
2023-07-06T17:32:36.564Z,36.81
2023-07-06T17:35:04.939Z,37.53
2023-07-06T17:37:31.769Z,37.44
2023-07-06T17:40:03.235Z,37.31
2023-07-06T17:42:30.331Z,37.57
2023-07-06T17:44:56.963Z,37.77
2023-07-06T17:47:25.850Z,38.31
2023-07-06T17:49:54.807Z,37.81
2023-07-06T17:52:21.379Z,38.62
2023-07-06T17:54:48.053Z,38.57
2023-07-06T17:57:14.864Z,39.28
2023-07-06T17:59:43.753Z,39.51
2023-07-06T18:02:10.465Z,39.39
2023-07-06T18:04:37.103Z,39.60
2023-07-06T18:07:04.193Z,39.56
2023-07-06T18:09:33.081Z,39.33
2023-07-06T18:11:59.899Z,40.15
2023-07-06T18:14:26.783Z,40.30
2023-07-06T18:16:53.957Z,40.66
2023-07-06T18:19:21.670Z,40.25
2023-07-06T18:21:48.453Z,40.64
2023-07-06T18:24:16.530Z,40.69
2023-07-06T18:26:44.801Z,40.74
2023-07-06T18:29:11.562Z,40.64
2023-07-06T18:31:38.282Z,40.55
2023-07-06T18:34:04.922Z,41.16
2023-07-06T18:36:36.439Z,41.13
2023-07-06T18:39:03.842Z,41.41
2023-07-06T18:41:32.959Z,41.85
2023-07-06T18:43:59.690Z,41.81
2023-07-06T18:46:26.391Z,41.97
2023-07-06T18:48:55.328Z,41.46
2023-07-06T18:51:24.960Z,42.22
2023-07-06T18:53:51.686Z,42.23
2023-07-06T18:56:20.739Z,42.31
2023-07-06T18:58:52.171Z,42.46
2023-07-06T19:01:18.780Z,42.67
2023-07-06T19:03:45.584Z,43.73
2023-07-06T19:06:17.655Z,43.34
2023-07-06T19:08:49.020Z,43.59
2023-07-06T19:11:17.483Z,44.05
2023-07-06T19:13:44.543Z,43.92
2023-07-06T19:16:11.281Z,44.15
2023-07-06T19:18:41.246Z,44.40
2023-07-06T19:21:13.889Z,44.78
2023-07-06T19:23:41.428Z,45.04
2023-07-06T19:26:08.153Z,45.33
2023-07-06T19:28:34.749Z,45.28
2023-07-06T19:31:01.605Z,45.26
2023-07-06T19:33:28.551Z,45.85
2023-07-06T19:35:55.463Z,46.44
2023-07-06T19:38:24.991Z,46.79
2023-07-06T19:40:56.013Z,46.79
2023-07-06T19:43:24.992Z,47.01
2023-07-06T19:45:51.651Z,46.80
2023-07-06T19:48:19.927Z,46.90
2023-07-06T19:50:46.772Z,47.39
2023-07-06T19:53:13.393Z,47.43
2023-07-06T19:55:42.159Z,47.48
2023-07-06T19:58:08.790Z,47.79
2023-07-06T20:00:35.726Z,47.88
2023-07-06T20:03:05.124Z,48.53
2023-07-06T20:05:39.470Z,48.61
2023-07-06T20:08:07.228Z,48.64
2023-07-06T20:10:33.967Z,49.10
2023-07-06T20:13:03.015Z,49.40
2023-07-06T20:15:31.485Z,49.45
2023-07-06T20:17:59.752Z,49.84
2023-07-06T20:20:29.343Z,50.02
2023-07-06T20:22:56.112Z,50.06
2023-07-06T20:25:22.787Z,50.28
2023-07-06T20:27:49.433Z,50.04
2023-07-06T20:30:16.085Z,50.77
2023-07-06T20:32:42.799Z,50.75
2023-07-06T20:35:09.870Z,51.45
2023-07-06T20:37:36.586Z,51.37
2023-07-06T20:40:03.472Z,51.82
2023-07-06T20:42:30.634Z,52.56
2023-07-06T20:44:59.345Z,53.27
2023-07-06T20:47:26.389Z,53.64
2023-07-06T20:49:53.985Z,53.41
2023-07-06T20:52:25.148Z,53.92
2023-07-06T20:54:55.283Z,54.41
2023-07-06T20:57:22.558Z,54.42
2023-07-06T20:59:49.628Z,54.54
2023-07-06T21:02:17.721Z,54.92
2023-07-06T21:04:44.712Z,55.28
2023-07-06T21:07:11.550Z,55.44
2023-07-06T21:09:38.356Z,55.89
2023-07-06T21:12:05.716Z,56.12
2023-07-06T21:14:32.459Z,56.42
2023-07-06T21:16:59.370Z,56.90
2023-07-06T21:19:26.150Z,57.23
2023-07-06T21:21:52.993Z,57.56
2023-07-06T21:24:20.380Z,57.80
2023-07-06T21:26:49.226Z,58.01
2023-07-06T21:29:16.064Z,58.16
2023-07-06T21:31:45.530Z,58.47
2023-07-06T21:34:14.074Z,58.81
2023-07-06T21:36:41.422Z,59.00
2023-07-06T21:39:09.476Z,59.21
2023-07-06T21:41:36.883Z,59.46
2023-07-06T21:44:06.806Z,59.73
2023-07-06T21:46:38.251Z,59.99
2023-07-06T21:49:04.864Z,60.13
2023-07-06T21:51:31.756Z,60.55
2023-07-06T21:53:58.679Z,60.53
2023-07-06T21:56:30.224Z,60.96
2023-07-06T21:58:56.859Z,61.17
2023-07-06T22:01:27.384Z,61.64
2023-07-06T22:03:54.119Z,61.77
2023-07-06T22:06:22.407Z,61.71
2023-07-06T22:08:50.032Z,61.86
2023-07-06T22:11:23.314Z,62.23
2023-07-06T22:13:52.888Z,62.25
2023-07-06T22:16:20.252Z,62.34
2023-07-06T22:18:47.157Z,62.66
2023-07-06T22:21:14.301Z,62.72
2023-07-06T22:23:43.508Z,63.05
2023-07-06T22:26:10.451Z,63.10
2023-07-06T22:28:37.460Z,63.26
2023-07-06T22:31:07.121Z,63.39
2023-07-06T22:33:41.249Z,63.60
2023-07-06T22:36:11.461Z,63.94
2023-07-06T22:38:42.135Z,63.95
2023-07-06T22:41:10.083Z,64.29
2023-07-06T22:43:37.419Z,64.35
2023-07-06T22:46:04.059Z,64.54
2023-07-06T22:48:30.729Z,64.75
2023-07-06T22:51:01.653Z,65.01
2023-07-06T22:53:29.551Z,65.12
2023-07-06T22:55:56.205Z,65.30
2023-07-06T22:58:23.032Z,65.51
2023-07-06T23:00:52.013Z,65.59
2023-07-06T23:03:21.306Z,65.56
2023-07-06T23:05:48.355Z,65.57
2023-07-06T23:08:15.777Z,65.62
2023-07-06T23:10:45.276Z,65.72
2023-07-06T23:13:14.256Z,65.80
2023-07-06T23:15:44.703Z,66.15
2023-07-06T23:18:11.968Z,66.14
2023-07-06T23:20:39.929Z,66.11
2023-07-06T23:23:08.911Z,66.21
2023-07-06T23:25:40.053Z,66.55
2023-07-06T23:28:10.822Z,66.33
2023-07-06T23:30:38.815Z,66.70
2023-07-06T23:33:11.329Z,66.73
2023-07-06T23:35:41.438Z,66.94
2023-07-06T23:38:14.487Z,66.96
2023-07-06T23:40:45.077Z,67.08
2023-07-06T23:43:12.606Z,67.41
2023-07-06T23:45:39.260Z,67.33
2023-07-06T23:48:09.250Z,67.66
2023-07-06T23:50:35.937Z,67.71
2023-07-06T23:53:03.032Z,67.98
2023-07-06T23:55:30.662Z,68.15
2023-07-06T23:57:57.734Z,68.38
